sensor_id;sensor_type;location;lat;lon;timestamp;temperature;humidity
40516;DHT22;26216;53.724;9.898;2022-11-12T00:00:29;14.00;98.10
40516;DHT22;26216;53.724;9.898;2022-11-12T00:02:56;14.00;98.10
40516;DHT22;26216;53.724;9.898;2022-11-12T00:05:22;14.00;98.00
40516;DHT22;26216;53.724;9.898;2022-11-12T00:07:48;13.90;98.00
40516;DHT22;26216;53.724;9.898;2022-11-12T00:10:14;13.90;98.00
40516;DHT22;26216;53.724;9.898;2022-11-12T00:12:40;13.90;98.00
40516;DHT22;26216;53.724;9.898;2022-11-12T00:15:06;13.90;98.00
40516;DHT22;26216;53.724;9.898;2022-11-12T00:17:32;13.90;98.00
40516;DHT22;26216;53.724;9.898;2022-11-12T00:19:58;13.90;98.00
40516;DHT22;26216;53.724;9.898;2022-11-12T00:22:23;13.90;98.00
40516;DHT22;26216;53.724;9.898;2022-11-12T00:24:49;13.90;98.00
40516;DHT22;26216;53.724;9.898;2022-11-12T00:27:15;13.90;98.00
40516;DHT22;26216;53.724;9.898;2022-11-12T00:29:41;13.90;98.00
40516;DHT22;26216;53.724;9.898;2022-11-12T00:32:08;13.90;98.00
40516;DHT22;26216;53.724;9.898;2022-11-12T00:34:34;13.80;98.00
40516;DHT22;26216;53.724;9.898;2022-11-12T00:37:00;13.80;98.00
40516;DHT22;26216;53.724;9.898;2022-11-12T00:39:27;13.80;97.90
40516;DHT22;26216;53.724;9.898;2022-11-12T00:41:53;13.80;98.00
40516;DHT22;26216;53.724;9.898;2022-11-12T00:44:19;13.80;98.00
40516;DHT22;26216;53.724;9.898;2022-11-12T00:46:45;13.80;98.00
40516;DHT22;26216;53.724;9.898;2022-11-12T00:49:11;13.80;98.00
40516;DHT22;26216;53.724;9.898;2022-11-12T00:51:37;13.80;98.00
40516;DHT22;26216;53.724;9.898;2022-11-12T00:54:04;13.80;98.00
40516;DHT22;26216;53.724;9.898;2022-11-12T00:56:30;13.70;98.00
40516;DHT22;26216;53.724;9.898;2022-11-12T00:58:57;13.80;98.00
40516;DHT22;26216;53.724;9.898;2022-11-12T01:01:23;13.70;98.00
40516;DHT22;26216;53.724;9.898;2022-11-12T01:03:49;13.70;98.00
40516;DHT22;26216;53.724;9.898;2022-11-12T01:06:18;13.70;98.00
40516;DHT22;26216;53.724;9.898;2022-11-12T01:08:44;13.70;98.00
40516;DHT22;26216;53.724;9.898;2022-11-12T01:11:15;13.70;98.00
40516;DHT22;26216;53.724;9.898;2022-11-12T01:13:43;13.70;98.00
40516;DHT22;26216;53.724;9.898;2022-11-12T01:16:16;13.60;98.00
40516;DHT22;26216;53.724;9.898;2022-11-12T01:18:45;13.70;98.00
40516;DHT22;26216;53.724;9.898;2022-11-12T01:21:13;13.70;98.00
40516;DHT22;26216;53.724;9.898;2022-11-12T01:23:40;13.70;98.00
40516;DHT22;26216;53.724;9.898;2022-11-12T01:26:09;13.60;97.90
40516;DHT22;26216;53.724;9.898;2022-11-12T01:28:35;13.70;98.00
40516;DHT22;26216;53.724;9.898;2022-11-12T01:31:33;13.70;97.90
40516;DHT22;26216;53.724;9.898;2022-11-12T01:34:02;13.60;97.80
40516;DHT22;26216;53.724;9.898;2022-11-12T01:36:35;13.60;97.80
40516;DHT22;26216;53.724;9.898;2022-11-12T01:39:03;13.60;97.80
40516;DHT22;26216;53.724;9.898;2022-11-12T01:41:32;13.60;97.80
40516;DHT22;26216;53.724;9.898;2022-11-12T01:46:57;13.60;97.80
40516;DHT22;26216;53.724;9.898;2022-11-12T01:52:47;13.60;97.70
40516;DHT22;26216;53.724;9.898;2022-11-12T01:54:55;13.50;97.60
40516;DHT22;26216;53.724;9.898;2022-11-12T01:57:38;13.50;97.60
40516;DHT22;26216;53.724;9.898;2022-11-12T02:00:12;13.50;97.60
40516;DHT22;26216;53.724;9.898;2022-11-12T02:02:39;13.50;97.50
40516;DHT22;26216;53.724;9.898;2022-11-12T02:05:08;13.40;97.50
40516;DHT22;26216;53.724;9.898;2022-11-12T02:07:36;13.40;97.50
40516;DHT22;26216;53.724;9.898;2022-11-12T02:10:03;13.40;97.40
40516;DHT22;26216;53.724;9.898;2022-11-12T02:12:29;13.40;97.40
40516;DHT22;26216;53.724;9.898;2022-11-12T02:15:14;13.30;97.30
40516;DHT22;26216;53.724;9.898;2022-11-12T02:17:40;13.30;97.30
40516;DHT22;26216;53.724;9.898;2022-11-12T02:20:09;13.20;97.30
40516;DHT22;26216;53.724;9.898;2022-11-12T02:22:35;13.20;97.30
40516;DHT22;26216;53.724;9.898;2022-11-12T02:25:01;13.10;97.20
40516;DHT22;26216;53.724;9.898;2022-11-12T02:27:27;13.10;97.30
40516;DHT22;26216;53.724;9.898;2022-11-12T02:29:53;13.10;97.30
40516;DHT22;26216;53.724;9.898;2022-11-12T02:32:19;13.10;97.30
40516;DHT22;26216;53.724;9.898;2022-11-12T02:34:44;13.00;97.20
40516;DHT22;26216;53.724;9.898;2022-11-12T02:37:10;13.00;97.20
40516;DHT22;26216;53.724;9.898;2022-11-12T02:39:36;13.00;97.10
40516;DHT22;26216;53.724;9.898;2022-11-12T02:42:03;12.90;97.10
40516;DHT22;26216;53.724;9.898;2022-11-12T02:44:29;12.80;97.00
40516;DHT22;26216;53.724;9.898;2022-11-12T02:46:55;12.80;97.00
40516;DHT22;26216;53.724;9.898;2022-11-12T02:49:21;12.70;96.90
40516;DHT22;26216;53.724;9.898;2022-11-12T02:51:47;12.70;96.90
40516;DHT22;26216;53.724;9.898;2022-11-12T02:54:13;12.60;96.80
40516;DHT22;26216;53.724;9.898;2022-11-12T02:56:39;12.50;96.80
40516;DHT22;26216;53.724;9.898;2022-11-12T02:59:05;12.50;96.80
40516;DHT22;26216;53.724;9.898;2022-11-12T03:01:30;12.50;96.80
40516;DHT22;26216;53.724;9.898;2022-11-12T03:03:56;12.40;97.00
40516;DHT22;26216;53.724;9.898;2022-11-12T03:06:22;12.30;96.80
40516;DHT22;26216;53.724;9.898;2022-11-12T03:08:48;12.30;96.80
40516;DHT22;26216;53.724;9.898;2022-11-12T03:11:15;12.20;96.70
40516;DHT22;26216;53.724;9.898;2022-11-12T03:13:41;12.20;96.70
40516;DHT22;26216;53.724;9.898;2022-11-12T03:16:08;12.10;96.70
40516;DHT22;26216;53.724;9.898;2022-11-12T03:18:34;12.00;96.60
40516;DHT22;26216;53.724;9.898;2022-11-12T03:21:00;12.00;96.60
40516;DHT22;26216;53.724;9.898;2022-11-12T03:23:26;11.90;96.60
40516;DHT22;26216;53.724;9.898;2022-11-12T03:25:52;11.90;96.60
40516;DHT22;26216;53.724;9.898;2022-11-12T03:28:18;11.80;96.70
40516;DHT22;26216;53.724;9.898;2022-11-12T03:30:44;11.80;96.80
40516;DHT22;26216;53.724;9.898;2022-11-12T03:33:12;11.70;96.90
40516;DHT22;26216;53.724;9.898;2022-11-12T03:35:39;11.70;96.90
40516;DHT22;26216;53.724;9.898;2022-11-12T03:38:05;11.60;97.00
40516;DHT22;26216;53.724;9.898;2022-11-12T03:40:32;11.60;97.00
40516;DHT22;26216;53.724;9.898;2022-11-12T03:42:58;11.60;97.00
40516;DHT22;26216;53.724;9.898;2022-11-12T03:45:25;11.50;97.00
40516;DHT22;26216;53.724;9.898;2022-11-12T03:47:54;11.50;97.10
40516;DHT22;26216;53.724;9.898;2022-11-12T03:50:25;11.40;97.00
40516;DHT22;26216;53.724;9.898;2022-11-12T03:52:53;11.40;97.00
40516;DHT22;26216;53.724;9.898;2022-11-12T03:55:21;11.30;97.00
40516;DHT22;26216;53.724;9.898;2022-11-12T03:57:50;11.30;97.00
40516;DHT22;26216;53.724;9.898;2022-11-12T04:00:17;11.30;97.00
40516;DHT22;26216;53.724;9.898;2022-11-12T04:02:43;11.20;97.00
40516;DHT22;26216;53.724;9.898;2022-11-12T04:05:09;11.20;97.00
40516;DHT22;26216;53.724;9.898;2022-11-12T04:07:58;11.10;97.00
40516;DHT22;26216;53.724;9.898;2022-11-12T04:10:43;11.10;97.00
40516;DHT22;26216;53.724;9.898;2022-11-12T04:13:09;11.00;97.00
40516;DHT22;26216;53.724;9.898;2022-11-12T04:16:01;11.00;97.00
40516;DHT22;26216;53.724;9.898;2022-11-12T04:18:48;11.00;97.00
40516;DHT22;26216;53.724;9.898;2022-11-12T04:21:44;10.90;96.90
40516;DHT22;26216;53.724;9.898;2022-11-12T04:24:22;10.90;97.00
40516;DHT22;26216;53.724;9.898;2022-11-12T04:27:09;10.80;97.00
40516;DHT22;26216;53.724;9.898;2022-11-12T04:29:35;10.80;96.90
40516;DHT22;26216;53.724;9.898;2022-11-12T04:32:20;10.70;97.00
40516;DHT22;26216;53.724;9.898;2022-11-12T04:34:46;10.70;97.00
40516;DHT22;26216;53.724;9.898;2022-11-12T04:37:12;10.70;97.00
40516;DHT22;26216;53.724;9.898;2022-11-12T04:39:38;10.60;97.00
40516;DHT22;26216;53.724;9.898;2022-11-12T04:42:07;10.60;96.90
40516;DHT22;26216;53.724;9.898;2022-11-12T04:44:52;10.50;96.90
40516;DHT22;26216;53.724;9.898;2022-11-12T04:47:25;10.50;96.90
40516;DHT22;26216;53.724;9.898;2022-11-12T04:49:51;10.50;96.90
40516;DHT22;26216;53.724;9.898;2022-11-12T04:52:17;10.40;96.90
40516;DHT22;26216;53.724;9.898;2022-11-12T04:54:43;10.40;96.90
40516;DHT22;26216;53.724;9.898;2022-11-12T04:57:09;10.40;97.00
40516;DHT22;26216;53.724;9.898;2022-11-12T04:59:34;10.30;97.00
40516;DHT22;26216;53.724;9.898;2022-11-12T05:02:00;10.30;96.90
40516;DHT22;26216;53.724;9.898;2022-11-12T05:04:26;10.30;96.90
40516;DHT22;26216;53.724;9.898;2022-11-12T05:06:55;10.30;96.90
40516;DHT22;26216;53.724;9.898;2022-11-12T05:09:26;10.20;96.90
40516;DHT22;26216;53.724;9.898;2022-11-12T05:11:53;10.20;96.90
40516;DHT22;26216;53.724;9.898;2022-11-12T05:14:23;10.20;96.90
40516;DHT22;26216;53.724;9.898;2022-11-12T05:16:50;10.10;96.80
40516;DHT22;26216;53.724;9.898;2022-11-12T05:19:16;10.10;96.80
40516;DHT22;26216;53.724;9.898;2022-11-12T05:21:42;10.10;96.80
40516;DHT22;26216;53.724;9.898;2022-11-12T05:24:26;10.00;96.70
40516;DHT22;26216;53.724;9.898;2022-11-12T05:26:53;10.00;96.80
40516;DHT22;26216;53.724;9.898;2022-11-12T05:29:19;10.00;96.80
40516;DHT22;26216;53.724;9.898;2022-11-12T05:31:44;9.90;96.80
40516;DHT22;26216;53.724;9.898;2022-11-12T05:34:10;9.90;96.80
40516;DHT22;26216;53.724;9.898;2022-11-12T05:36:36;9.90;96.90
40516;DHT22;26216;53.724;9.898;2022-11-12T05:39:03;9.90;96.80
40516;DHT22;26216;53.724;9.898;2022-11-12T05:41:29;9.80;96.80
40516;DHT22;26216;53.724;9.898;2022-11-12T05:43:55;9.80;96.80
40516;DHT22;26216;53.724;9.898;2022-11-12T05:46:22;9.80;96.80
40516;DHT22;26216;53.724;9.898;2022-11-12T05:48:47;9.80;96.80
40516;DHT22;26216;53.724;9.898;2022-11-12T05:51:13;9.80;96.80
40516;DHT22;26216;53.724;9.898;2022-11-12T05:53:40;9.70;96.80
40516;DHT22;26216;53.724;9.898;2022-11-12T05:56:07;9.70;96.90
40516;DHT22;26216;53.724;9.898;2022-11-12T05:58:34;9.70;96.90
40516;DHT22;26216;53.724;9.898;2022-11-12T06:01:01;9.70;96.90
40516;DHT22;26216;53.724;9.898;2022-11-12T06:03:27;9.60;97.10
40516;DHT22;26216;53.724;9.898;2022-11-12T06:05:53;9.60;96.90
40516;DHT22;26216;53.724;9.898;2022-11-12T06:08:19;9.60;96.80
40516;DHT22;26216;53.724;9.898;2022-11-12T06:10:51;9.60;96.80
40516;DHT22;26216;53.724;9.898;2022-11-12T06:13:18;9.60;96.80
40516;DHT22;26216;53.724;9.898;2022-11-12T06:15:44;9.60;96.70
40516;DHT22;26216;53.724;9.898;2022-11-12T06:18:11;9.50;96.70
40516;DHT22;26216;53.724;9.898;2022-11-12T06:20:37;9.50;96.60
40516;DHT22;26216;53.724;9.898;2022-11-12T06:23:03;9.50;96.60
40516;DHT22;26216;53.724;9.898;2022-11-12T06:25:29;9.40;96.60
40516;DHT22;26216;53.724;9.898;2022-11-12T06:28:04;9.40;96.60
40516;DHT22;26216;53.724;9.898;2022-11-12T06:30:30;9.40;96.60
40516;DHT22;26216;53.724;9.898;2022-11-12T06:32:55;9.30;96.50
40516;DHT22;26216;53.724;9.898;2022-11-12T06:35:21;9.30;96.50
40516;DHT22;26216;53.724;9.898;2022-11-12T06:37:48;9.30;96.50
40516;DHT22;26216;53.724;9.898;2022-11-12T06:40:14;9.30;96.80
40516;DHT22;26216;53.724;9.898;2022-11-12T06:42:40;9.30;96.60
40516;DHT22;26216;53.724;9.898;2022-11-12T06:45:06;9.30;96.60
40516;DHT22;26216;53.724;9.898;2022-11-12T06:47:32;9.30;96.60
40516;DHT22;26216;53.724;9.898;2022-11-12T06:49:58;9.20;96.60
40516;DHT22;26216;53.724;9.898;2022-11-12T06:52:24;9.20;96.60
40516;DHT22;26216;53.724;9.898;2022-11-12T06:54:49;9.20;96.60
40516;DHT22;26216;53.724;9.898;2022-11-12T06:57:15;9.20;96.60
40516;DHT22;26216;53.724;9.898;2022-11-12T06:59:41;9.20;96.60
40516;DHT22;26216;53.724;9.898;2022-11-12T07:02:10;9.10;96.70
40516;DHT22;26216;53.724;9.898;2022-11-12T07:04:37;9.10;96.90
40516;DHT22;26216;53.724;9.898;2022-11-12T07:07:03;9.10;96.70
40516;DHT22;26216;53.724;9.898;2022-11-12T07:09:28;9.10;96.70
40516;DHT22;26216;53.724;9.898;2022-11-12T07:12:01;9.10;96.80
40516;DHT22;26216;53.724;9.898;2022-11-12T07:14:26;9.10;96.80
40516;DHT22;26216;53.724;9.898;2022-11-12T07:16:52;9.10;96.90
40516;DHT22;26216;53.724;9.898;2022-11-12T07:19:18;9.10;96.90
40516;DHT22;26216;53.724;9.898;2022-11-12T07:21:44;9.10;97.00
40516;DHT22;26216;53.724;9.898;2022-11-12T07:24:09;9.10;97.00
40516;DHT22;26216;53.724;9.898;2022-11-12T07:26:35;9.10;97.00
40516;DHT22;26216;53.724;9.898;2022-11-12T07:29:01;9.10;97.00
40516;DHT22;26216;53.724;9.898;2022-11-12T07:31:27;9.10;97.10
40516;DHT22;26216;53.724;9.898;2022-11-12T07:33:53;9.20;97.20
40516;DHT22;26216;53.724;9.898;2022-11-12T07:36:20;9.20;97.20
40516;DHT22;26216;53.724;9.898;2022-11-12T07:38:46;9.20;97.20
40516;DHT22;26216;53.724;9.898;2022-11-12T07:41:14;9.20;97.30
40516;DHT22;26216;53.724;9.898;2022-11-12T07:43:43;9.20;97.40
40516;DHT22;26216;53.724;9.898;2022-11-12T07:46:14;9.20;97.50
40516;DHT22;26216;53.724;9.898;2022-11-12T07:48:41;9.30;97.50
40516;DHT22;26216;53.724;9.898;2022-11-12T07:51:16;9.30;97.50
40516;DHT22;26216;53.724;9.898;2022-11-12T07:53:43;9.40;97.60
40516;DHT22;26216;53.724;9.898;2022-11-12T07:56:11;9.40;97.70
40516;DHT22;26216;53.724;9.898;2022-11-12T07:58:37;9.40;97.70
40516;DHT22;26216;53.724;9.898;2022-11-12T08:03:47;9.50;97.80
40516;DHT22;26216;53.724;9.898;2022-11-12T08:06:13;9.50;97.80
40516;DHT22;26216;53.724;9.898;2022-11-12T08:08:39;9.60;97.90
40516;DHT22;26216;53.724;9.898;2022-11-12T08:11:05;9.60;97.90
40516;DHT22;26216;53.724;9.898;2022-11-12T08:13:31;9.70;98.00
40516;DHT22;26216;53.724;9.898;2022-11-12T08:15:57;9.70;98.00
40516;DHT22;26216;53.724;9.898;2022-11-12T08:18:24;9.80;98.10
40516;DHT22;26216;53.724;9.898;2022-11-12T08:20:51;9.80;98.10
40516;DHT22;26216;53.724;9.898;2022-11-12T08:23:17;9.90;98.20
40516;DHT22;26216;53.724;9.898;2022-11-12T08:25:43;10.00;98.20
40516;DHT22;26216;53.724;9.898;2022-11-12T08:28:09;10.00;98.20
40516;DHT22;26216;53.724;9.898;2022-11-12T08:30:35;10.00;98.20
40516;DHT22;26216;53.724;9.898;2022-11-12T08:33:03;10.10;98.20
40516;DHT22;26216;53.724;9.898;2022-11-12T08:35:30;10.20;98.20
40516;DHT22;26216;53.724;9.898;2022-11-12T08:38:05;10.20;98.20
40516;DHT22;26216;53.724;9.898;2022-11-12T08:40:33;10.30;98.20
40516;DHT22;26216;53.724;9.898;2022-11-12T08:43:05;10.30;98.20
40516;DHT22;26216;53.724;9.898;2022-11-12T08:45:31;10.40;98.30
40516;DHT22;26216;53.724;9.898;2022-11-12T08:47:59;10.50;98.30
40516;DHT22;26216;53.724;9.898;2022-11-12T08:50:26;10.50;98.20
40516;DHT22;26216;53.724;9.898;2022-11-12T08:52:52;10.60;98.20
40516;DHT22;26216;53.724;9.898;2022-11-12T08:55:17;10.60;98.20
40516;DHT22;26216;53.724;9.898;2022-11-12T08:57:43;10.70;98.20
40516;DHT22;26216;53.724;9.898;2022-11-12T09:00:11;10.80;98.20
40516;DHT22;26216;53.724;9.898;2022-11-12T09:02:37;10.80;98.30
40516;DHT22;26216;53.724;9.898;2022-11-12T09:05:04;10.90;98.30
40516;DHT22;26216;53.724;9.898;2022-11-12T09:07:30;10.90;98.20
40516;DHT22;26216;53.724;9.898;2022-11-12T09:09:56;11.00;98.20
40516;DHT22;26216;53.724;9.898;2022-11-12T09:12:23;11.00;98.20
40516;DHT22;26216;53.724;9.898;2022-11-12T09:14:49;11.10;98.20
40516;DHT22;26216;53.724;9.898;2022-11-12T09:17:14;11.20;98.20
40516;DHT22;26216;53.724;9.898;2022-11-12T09:19:40;11.20;98.20
40516;DHT22;26216;53.724;9.898;2022-11-12T09:22:07;11.30;98.20
40516;DHT22;26216;53.724;9.898;2022-11-12T09:24:33;11.40;98.20
40516;DHT22;26216;53.724;9.898;2022-11-12T09:26:59;11.40;98.20
40516;DHT22;26216;53.724;9.898;2022-11-12T09:29:25;11.50;98.50
40516;DHT22;26216;53.724;9.898;2022-11-12T09:31:51;11.60;98.20
40516;DHT22;26216;53.724;9.898;2022-11-12T09:34:17;11.60;98.20
40516;DHT22;26216;53.724;9.898;2022-11-12T09:36:43;11.70;98.20
40516;DHT22;26216;53.724;9.898;2022-11-12T09:39:09;11.70;98.10
40516;DHT22;26216;53.724;9.898;2022-11-12T09:41:38;11.80;98.00
40516;DHT22;26216;53.724;9.898;2022-11-12T09:44:24;11.80;98.00
40516;DHT22;26216;53.724;9.898;2022-11-12T09:46:54;11.90;97.90
40516;DHT22;26216;53.724;9.898;2022-11-12T09:49:22;12.00;98.00
40516;DHT22;26216;53.724;9.898;2022-11-12T09:51:54;12.00;97.90
40516;DHT22;26216;53.724;9.898;2022-11-12T09:54:22;12.10;97.90
40516;DHT22;26216;53.724;9.898;2022-11-12T09:56:50;12.10;97.90
40516;DHT22;26216;53.724;9.898;2022-11-12T09:59:17;12.20;97.80
40516;DHT22;26216;53.724;9.898;2022-11-12T10:02:09;12.30;97.90
40516;DHT22;26216;53.724;9.898;2022-11-12T10:10:14;12.40;97.80
40516;DHT22;26216;53.724;9.898;2022-11-12T10:13:06;12.50;97.80
40516;DHT22;26216;53.724;9.898;2022-11-12T10:21:15;12.70;97.80
40516;DHT22;26216;53.724;9.898;2022-11-12T10:23:48;12.80;97.70
40516;DHT22;26216;53.724;9.898;2022-11-12T10:26:17;12.80;98.00
40516;DHT22;26216;53.724;9.898;2022-11-12T10:31:35;12.90;97.80
40516;DHT22;26216;53.724;9.898;2022-11-12T10:34:30;13.00;97.70
40516;DHT22;26216;53.724;9.898;2022-11-12T10:39:51;13.20;97.70
40516;DHT22;26216;53.724;9.898;2022-11-12T10:42:19;13.30;97.70
40516;DHT22;26216;53.724;9.898;2022-11-12T10:44:46;13.30;97.60
40516;DHT22;26216;53.724;9.898;2022-11-12T10:47:25;13.40;97.90
40516;DHT22;26216;53.724;9.898;2022-11-12T10:52:37;13.50;97.20
40516;DHT22;26216;53.724;9.898;2022-11-12T10:58:15;13.70;97.30
40516;DHT22;26216;53.724;9.898;2022-11-12T11:01:04;13.70;97.30
40516;DHT22;26216;53.724;9.898;2022-11-12T11:03:37;13.80;97.30
40516;DHT22;26216;53.724;9.898;2022-11-12T11:08:45;13.90;97.20
40516;DHT22;26216;53.724;9.898;2022-11-12T11:11:27;14.00;97.20
40516;DHT22;26216;53.724;9.898;2022-11-12T11:13:55;14.10;97.00
40516;DHT22;26216;53.724;9.898;2022-11-12T11:16:26;14.10;97.00
40516;DHT22;26216;53.724;9.898;2022-11-12T11:19:01;14.20;97.10
40516;DHT22;26216;53.724;9.898;2022-11-12T11:27:28;14.30;96.70
40516;DHT22;26216;53.724;9.898;2022-11-12T11:38:40;14.50;96.40
40516;DHT22;26216;53.724;9.898;2022-11-12T11:57:57;14.60;96.20
40516;DHT22;26216;53.724;9.898;2022-11-12T12:00:34;14.60;95.70
40516;DHT22;26216;53.724;9.898;2022-11-12T12:03:21;14.60;95.60
40516;DHT22;26216;53.724;9.898;2022-11-12T12:06:17;14.70;95.50
40516;DHT22;26216;53.724;9.898;2022-11-12T12:25:31;14.90;95.60
40516;DHT22;26216;53.724;9.898;2022-11-12T12:28:59;14.90;95.70
40516;DHT22;26216;53.724;9.898;2022-11-12T12:31:17;14.90;95.60
40516;DHT22;26216;53.724;9.898;2022-11-12T12:36:17;14.90;95.60
40516;DHT22;26216;53.724;9.898;2022-11-12T12:38:50;14.90;95.60
40516;DHT22;26216;53.724;9.898;2022-11-12T12:41:30;14.90;95.60
40516;DHT22;26216;53.724;9.898;2022-11-12T12:44:08;14.90;95.60
40516;DHT22;26216;53.724;9.898;2022-11-12T12:46:55;14.90;95.60
40516;DHT22;26216;53.724;9.898;2022-11-12T12:49:29;14.90;95.60
40516;DHT22;26216;53.724;9.898;2022-11-12T12:51:57;14.90;95.60
40516;DHT22;26216;53.724;9.898;2022-11-12T12:57:03;14.90;95.70
40516;DHT22;26216;53.724;9.898;2022-11-12T12:59:29;14.90;96.00
40516;DHT22;26216;53.724;9.898;2022-11-12T13:01:58;14.90;95.80
40516;DHT22;26216;53.724;9.898;2022-11-12T13:04:51;14.90;95.80
40516;DHT22;26216;53.724;9.898;2022-11-12T13:07:42;14.90;95.80
40516;DHT22;26216;53.724;9.898;2022-11-12T13:15:53;14.90;95.90
40516;DHT22;26216;53.724;9.898;2022-11-12T13:21:12;15.00;96.00
40516;DHT22;26216;53.724;9.898;2022-11-12T13:23:47;15.00;96.10
40516;DHT22;26216;53.724;9.898;2022-11-12T13:26:51;15.00;96.10
40516;DHT22;26216;53.724;9.898;2022-11-12T13:35:26;15.10;96.00
40516;DHT22;26216;53.724;9.898;2022-11-12T13:43:45;15.10;95.90
40516;DHT22;26216;53.724;9.898;2022-11-12T13:46:25;15.20;95.90
40516;DHT22;26216;53.724;9.898;2022-11-12T13:49:01;15.20;95.80
40516;DHT22;26216;53.724;9.898;2022-11-12T13:51:43;15.20;95.70
40516;DHT22;26216;53.724;9.898;2022-11-12T13:56:54;15.20;95.70
40516;DHT22;26216;53.724;9.898;2022-11-12T13:59:23;15.20;95.70
40516;DHT22;26216;53.724;9.898;2022-11-12T14:01:49;15.20;95.60
40516;DHT22;26216;53.724;9.898;2022-11-12T14:04:18;15.20;95.60
40516;DHT22;26216;53.724;9.898;2022-11-12T14:06:52;15.20;95.60
40516;DHT22;26216;53.724;9.898;2022-11-12T14:09:27;15.30;95.60
40516;DHT22;26216;53.724;9.898;2022-11-12T14:17:43;15.30;95.50
40516;DHT22;26216;53.724;9.898;2022-11-12T14:22:45;15.30;95.70
40516;DHT22;26216;53.724;9.898;2022-11-12T14:25:23;15.30;95.50
40516;DHT22;26216;53.724;9.898;2022-11-12T14:27:52;15.20;95.50
40516;DHT22;26216;53.724;9.898;2022-11-12T14:30:28;15.30;95.50
40516;DHT22;26216;53.724;9.898;2022-11-12T14:33:20;15.30;95.50
40516;DHT22;26216;53.724;9.898;2022-11-12T14:35:48;15.20;95.30
40516;DHT22;26216;53.724;9.898;2022-11-12T14:38:26;15.20;95.40
40516;DHT22;26216;53.724;9.898;2022-11-12T14:41:01;15.20;95.40
40516;DHT22;26216;53.724;9.898;2022-11-12T14:43:47;15.20;95.40
40516;DHT22;26216;53.724;9.898;2022-11-12T14:46:26;15.20;95.40
40516;DHT22;26216;53.724;9.898;2022-11-12T14:49:15;15.20;95.40
40516;DHT22;26216;53.724;9.898;2022-11-12T14:51:52;15.20;95.40
40516;DHT22;26216;53.724;9.898;2022-11-12T14:54:33;15.10;95.30
40516;DHT22;26216;53.724;9.898;2022-11-12T14:57:02;15.10;95.20
40516;DHT22;26216;53.724;9.898;2022-11-12T14:59:30;15.10;95.20
40516;DHT22;26216;53.724;9.898;2022-11-12T15:02:11;15.00;95.10
40516;DHT22;26216;53.724;9.898;2022-11-12T15:04:43;15.00;95.10
40516;DHT22;26216;53.724;9.898;2022-11-12T15:07:31;14.90;95.00
40516;DHT22;26216;53.724;9.898;2022-11-12T15:09:58;14.80;94.90
40516;DHT22;26216;53.724;9.898;2022-11-12T15:12:27;14.70;94.90
40516;DHT22;26216;53.724;9.898;2022-11-12T15:15:17;14.70;94.80
40516;DHT22;26216;53.724;9.898;2022-11-12T15:17:46;14.50;94.70
40516;DHT22;26216;53.724;9.898;2022-11-12T15:20:20;14.50;94.70
40516;DHT22;26216;53.724;9.898;2022-11-12T15:22:50;14.40;94.60
40516;DHT22;26216;53.724;9.898;2022-11-12T15:25:23;14.30;94.60
40516;DHT22;26216;53.724;9.898;2022-11-12T15:27:49;14.20;94.50
40516;DHT22;26216;53.724;9.898;2022-11-12T15:30:28;14.10;94.80
40516;DHT22;26216;53.724;9.898;2022-11-12T15:33:17;14.00;94.40
40516;DHT22;26216;53.724;9.898;2022-11-12T15:35:43;13.90;94.40
40516;DHT22;26216;53.724;9.898;2022-11-12T15:38:19;13.80;94.40
40516;DHT22;26216;53.724;9.898;2022-11-12T15:40:52;13.70;94.40
40516;DHT22;26216;53.724;9.898;2022-11-12T15:43:24;13.70;94.40
40516;DHT22;26216;53.724;9.898;2022-11-12T15:45:52;13.60;94.30
40516;DHT22;26216;53.724;9.898;2022-11-12T15:48:20;13.50;94.40
40516;DHT22;26216;53.724;9.898;2022-11-12T15:50:46;13.40;94.30
40516;DHT22;26216;53.724;9.898;2022-11-12T15:53:13;13.40;94.40
40516;DHT22;26216;53.724;9.898;2022-11-12T15:55:40;13.20;94.30
40516;DHT22;26216;53.724;9.898;2022-11-12T15:58:22;13.20;94.30
40516;DHT22;26216;53.724;9.898;2022-11-12T16:00:52;13.10;94.30
40516;DHT22;26216;53.724;9.898;2022-11-12T16:03:21;13.00;94.30
40516;DHT22;26216;53.724;9.898;2022-11-12T16:05:47;12.90;94.20
40516;DHT22;26216;53.724;9.898;2022-11-12T16:08:14;12.80;94.30
40516;DHT22;26216;53.724;9.898;2022-11-12T16:10:42;12.80;94.30
40516;DHT22;26216;53.724;9.898;2022-11-12T16:13:15;12.70;94.30
40516;DHT22;26216;53.724;9.898;2022-11-12T16:15:42;12.60;94.20
40516;DHT22;26216;53.724;9.898;2022-11-12T16:18:11;12.50;94.30
40516;DHT22;26216;53.724;9.898;2022-11-12T16:20:37;12.40;94.20
40516;DHT22;26216;53.724;9.898;2022-11-12T16:23:03;12.30;94.30
40516;DHT22;26216;53.724;9.898;2022-11-12T16:25:33;12.20;94.30
40516;DHT22;26216;53.724;9.898;2022-11-12T16:28:00;12.10;94.30
40516;DHT22;26216;53.724;9.898;2022-11-12T16:30:29;12.10;94.40
40516;DHT22;26216;53.724;9.898;2022-11-12T16:32:56;12.00;94.40
40516;DHT22;26216;53.724;9.898;2022-11-12T16:35:22;11.90;94.40
40516;DHT22;26216;53.724;9.898;2022-11-12T16:37:51;11.90;94.40
40516;DHT22;26216;53.724;9.898;2022-11-12T16:40:22;11.80;94.40
40516;DHT22;26216;53.724;9.898;2022-11-12T16:42:49;11.70;94.40
40516;DHT22;26216;53.724;9.898;2022-11-12T16:45:22;11.70;94.50
40516;DHT22;26216;53.724;9.898;2022-11-12T16:47:53;11.60;94.70
40516;DHT22;26216;53.724;9.898;2022-11-12T16:50:22;11.50;94.40
40516;DHT22;26216;53.724;9.898;2022-11-12T16:52:49;11.40;94.40
40516;DHT22;26216;53.724;9.898;2022-11-12T16:55:16;11.40;94.50
40516;DHT22;26216;53.724;9.898;2022-11-12T16:57:42;11.40;94.50
40516;DHT22;26216;53.724;9.898;2022-11-12T17:00:16;11.30;94.50
40516;DHT22;26216;53.724;9.898;2022-11-12T17:02:43;11.20;94.50
40516;DHT22;26216;53.724;9.898;2022-11-12T17:05:23;11.20;94.50
40516;DHT22;26216;53.724;9.898;2022-11-12T17:07:54;11.10;94.50
40516;DHT22;26216;53.724;9.898;2022-11-12T17:10:21;11.10;94.60
40516;DHT22;26216;53.724;9.898;2022-11-12T17:12:53;11.00;94.60
40516;DHT22;26216;53.724;9.898;2022-11-12T17:15:19;11.00;94.70
40516;DHT22;26216;53.724;9.898;2022-11-12T17:17:45;10.90;94.70
40516;DHT22;26216;53.724;9.898;2022-11-12T17:20:11;10.80;94.70
40516;DHT22;26216;53.724;9.898;2022-11-12T17:22:37;10.80;94.80
40516;DHT22;26216;53.724;9.898;2022-11-12T17:25:04;10.70;94.80
40516;DHT22;26216;53.724;9.898;2022-11-12T17:27:30;10.60;94.90
40516;DHT22;26216;53.724;9.898;2022-11-12T17:29:56;10.60;95.00
40516;DHT22;26216;53.724;9.898;2022-11-12T17:32:22;10.50;95.10
40516;DHT22;26216;53.724;9.898;2022-11-12T17:34:49;10.50;95.20
40516;DHT22;26216;53.724;9.898;2022-11-12T17:37:15;10.50;95.30
40516;DHT22;26216;53.724;9.898;2022-11-12T17:39:41;10.40;95.30
40516;DHT22;26216;53.724;9.898;2022-11-12T17:42:07;10.40;95.50
40516;DHT22;26216;53.724;9.898;2022-11-12T17:44:33;10.40;95.50
40516;DHT22;26216;53.724;9.898;2022-11-12T17:46:59;10.30;95.40